YXNO weather

Noosa Hospital Helipad
Noosa, Queensland, Australia

Public forecast

Using degrees Celsius for public forecast. Weather courtesy of forecast.io.

METAR (pilot weather report)

Closest report is Brisbane International Airport, 59.1 nm (109.4 km) S. Retrieved 2019/02/19 01:00 UTC (15 minutes ago):

YBBN 190100Z 02007KT 010V070 9999 FEW035 29/17 Q1008 NOSIG

TAF (pilot weather forecast)

Forecast is more than 12 hours old.

Closest forecast is Brisbane International Airport, 59.1 nm (109.4 km) S. Retrieved 2019/02/18 00:00 UTC (1 day ago):

TAF YBBN 182310Z 1900/2006 12010KT 9999 FEW030 FM190100 06012KT CAVOK FM190900 09008KT 9999 FEW020 FM191500 20006KT 9999 SCT020 FM192300 14010KT 9999 SCT030 FM200200 10014KT CAVOK